sensor_id;sensor_type;location;lat;lon;timestamp;temperature;humidity
7216;DHT22;3649;48.798;9.798;2022-08-19T00:01:55;25.20;99.90
7216;DHT22;3649;48.798;9.798;2022-08-19T00:04:26;25.20;99.90
7216;DHT22;3649;48.798;9.798;2022-08-19T00:06:54;25.20;99.90
7216;DHT22;3649;48.798;9.798;2022-08-19T00:09:22;25.20;99.90
7216;DHT22;3649;48.798;9.798;2022-08-19T00:11:50;25.20;99.90
7216;DHT22;3649;48.798;9.798;2022-08-19T00:14:18;25.10;99.90
7216;DHT22;3649;48.798;9.798;2022-08-19T00:16:48;25.10;99.90
7216;DHT22;3649;48.798;9.798;2022-08-19T00:19:16;25.10;99.90
7216;DHT22;3649;48.798;9.798;2022-08-19T00:21:43;25.00;99.90
7216;DHT22;3649;48.798;9.798;2022-08-19T00:24:12;25.00;99.90
7216;DHT22;3649;48.798;9.798;2022-08-19T00:26:41;25.00;99.90
7216;DHT22;3649;48.798;9.798;2022-08-19T00:29:11;25.10;99.90
7216;DHT22;3649;48.798;9.798;2022-08-19T00:31:39;25.10;99.90
7216;DHT22;3649;48.798;9.798;2022-08-19T00:34:06;25.00;99.90
7216;DHT22;3649;48.798;9.798;2022-08-19T00:36:33;24.90;99.90
7216;DHT22;3649;48.798;9.798;2022-08-19T00:39:00;24.90;99.90
7216;DHT22;3649;48.798;9.798;2022-08-19T00:41:27;24.80;99.90
7216;DHT22;3649;48.798;9.798;2022-08-19T00:46:26;24.80;99.90
7216;DHT22;3649;48.798;9.798;2022-08-19T00:48:54;24.90;99.90
7216;DHT22;3649;48.798;9.798;2022-08-19T00:51:25;24.80;99.90
7216;DHT22;3649;48.798;9.798;2022-08-19T00:53:55;24.80;99.90
7216;DHT22;3649;48.798;9.798;2022-08-19T00:56:23;24.80;99.90
7216;DHT22;3649;48.798;9.798;2022-08-19T00:58:55;24.80;99.90
7216;DHT22;3649;48.798;9.798;2022-08-19T01:01:22;24.80;99.90
7216;DHT22;3649;48.798;9.798;2022-08-19T01:03:50;24.80;99.90
7216;DHT22;3649;48.798;9.798;2022-08-19T01:06:25;24.90;99.90
7216;DHT22;3649;48.798;9.798;2022-08-19T01:08:54;24.90;99.90
7216;DHT22;3649;48.798;9.798;2022-08-19T01:11:21;24.90;99.90
7216;DHT22;3649;48.798;9.798;2022-08-19T01:13:48;24.90;99.90
7216;DHT22;3649;48.798;9.798;2022-08-19T01:16:18;24.80;99.90
7216;DHT22;3649;48.798;9.798;2022-08-19T01:18:46;24.80;99.90
7216;DHT22;3649;48.798;9.798;2022-08-19T01:24:01;24.80;99.90
7216;DHT22;3649;48.798;9.798;2022-08-19T01:26:28;24.80;99.90
7216;DHT22;3649;48.798;9.798;2022-08-19T01:28:58;24.80;99.90
7216;DHT22;3649;48.798;9.798;2022-08-19T01:31:29;24.80;99.90
7216;DHT22;3649;48.798;9.798;2022-08-19T01:33:59;24.70;99.90
7216;DHT22;3649;48.798;9.798;2022-08-19T01:36:44;24.70;99.90
7216;DHT22;3649;48.798;9.798;2022-08-19T01:39:22;24.70;99.90
7216;DHT22;3649;48.798;9.798;2022-08-19T01:41:49;24.70;99.90
7216;DHT22;3649;48.798;9.798;2022-08-19T01:44:16;24.70;99.90
7216;DHT22;3649;48.798;9.798;2022-08-19T01:46:48;24.60;99.90
7216;DHT22;3649;48.798;9.798;2022-08-19T01:49:17;24.50;99.90
7216;DHT22;3649;48.798;9.798;2022-08-19T01:51:44;24.50;99.90
7216;DHT22;3649;48.798;9.798;2022-08-19T01:54:14;24.50;99.90
7216;DHT22;3649;48.798;9.798;2022-08-19T01:57:05;24.50;99.90
7216;DHT22;3649;48.798;9.798;2022-08-19T01:59:33;24.60;99.90
7216;DHT22;3649;48.798;9.798;2022-08-19T02:02:05;24.60;99.90
7216;DHT22;3649;48.798;9.798;2022-08-19T02:04:36;24.60;99.90
7216;DHT22;3649;48.798;9.798;2022-08-19T02:07:05;24.70;99.90
7216;DHT22;3649;48.798;9.798;2022-08-19T02:09:32;24.60;99.90
7216;DHT22;3649;48.798;9.798;2022-08-19T02:11:59;24.60;99.90
7216;DHT22;3649;48.798;9.798;2022-08-19T02:14:26;24.50;99.90
7216;DHT22;3649;48.798;9.798;2022-08-19T02:16:53;24.50;99.90
7216;DHT22;3649;48.798;9.798;2022-08-19T02:19:20;24.40;99.90
7216;DHT22;3649;48.798;9.798;2022-08-19T02:21:47;24.50;99.90
7216;DHT22;3649;48.798;9.798;2022-08-19T02:24:14;24.50;99.90
7216;DHT22;3649;48.798;9.798;2022-08-19T02:26:40;24.40;99.90
7216;DHT22;3649;48.798;9.798;2022-08-19T02:29:07;24.40;99.90
7216;DHT22;3649;48.798;9.798;2022-08-19T02:31:34;24.40;99.90
7216;DHT22;3649;48.798;9.798;2022-08-19T02:34:02;24.40;99.90
7216;DHT22;3649;48.798;9.798;2022-08-19T02:36:30;24.40;99.90
7216;DHT22;3649;48.798;9.798;2022-08-19T02:38:56;24.30;99.90
7216;DHT22;3649;48.798;9.798;2022-08-19T02:41:29;24.30;99.90
7216;DHT22;3649;48.798;9.798;2022-08-19T02:43:59;24.50;99.90
7216;DHT22;3649;48.798;9.798;2022-08-19T02:46:49;24.40;99.90
7216;DHT22;3649;48.798;9.798;2022-08-19T02:49:18;24.40;99.90
7216;DHT22;3649;48.798;9.798;2022-08-19T02:51:46;24.40;99.90
7216;DHT22;3649;48.798;9.798;2022-08-19T02:54:14;24.40;99.90
7216;DHT22;3649;48.798;9.798;2022-08-19T02:56:42;24.30;99.90
7216;DHT22;3649;48.798;9.798;2022-08-19T02:59:09;24.30;99.90
7216;DHT22;3649;48.798;9.798;2022-08-19T03:01:40;24.30;99.90
7216;DHT22;3649;48.798;9.798;2022-08-19T03:04:09;24.30;99.90
7216;DHT22;3649;48.798;9.798;2022-08-19T03:06:38;24.30;99.90
7216;DHT22;3649;48.798;9.798;2022-08-19T03:09:05;24.30;99.90
7216;DHT22;3649;48.798;9.798;2022-08-19T03:11:33;24.30;99.90
7216;DHT22;3649;48.798;9.798;2022-08-19T03:14:01;24.30;99.90
7216;DHT22;3649;48.798;9.798;2022-08-19T03:16:30;24.30;99.90
7216;DHT22;3649;48.798;9.798;2022-08-19T03:19:00;24.40;99.90
7216;DHT22;3649;48.798;9.798;2022-08-19T03:21:30;24.40;99.90
7216;DHT22;3649;48.798;9.798;2022-08-19T03:24:00;24.40;99.90
7216;DHT22;3649;48.798;9.798;2022-08-19T03:26:28;24.40;99.90
7216;DHT22;3649;48.798;9.798;2022-08-19T03:28:56;24.30;99.90
7216;DHT22;3649;48.798;9.798;2022-08-19T03:31:25;24.30;99.90
7216;DHT22;3649;48.798;9.798;2022-08-19T03:34:18;24.30;99.90
7216;DHT22;3649;48.798;9.798;2022-08-19T03:36:46;24.30;99.90
7216;DHT22;3649;48.798;9.798;2022-08-19T03:39:14;24.30;99.90
7216;DHT22;3649;48.798;9.798;2022-08-19T03:41:43;24.30;99.90
7216;DHT22;3649;48.798;9.798;2022-08-19T03:44:15;24.30;99.90
7216;DHT22;3649;48.798;9.798;2022-08-19T03:46:49;24.20;99.90
7216;DHT22;3649;48.798;9.798;2022-08-19T03:49:17;24.30;99.90
7216;DHT22;3649;48.798;9.798;2022-08-19T03:51:46;24.30;99.90
7216;DHT22;3649;48.798;9.798;2022-08-19T03:54:15;24.30;99.90
7216;DHT22;3649;48.798;9.798;2022-08-19T03:56:43;24.30;99.90
7216;DHT22;3649;48.798;9.798;2022-08-19T03:59:13;24.30;99.90
7216;DHT22;3649;48.798;9.798;2022-08-19T04:01:41;24.30;99.90
7216;DHT22;3649;48.798;9.798;2022-08-19T04:04:08;24.20;99.90
7216;DHT22;3649;48.798;9.798;2022-08-19T04:06:37;24.20;99.90
7216;DHT22;3649;48.798;9.798;2022-08-19T04:09:08;24.20;99.90
7216;DHT22;3649;48.798;9.798;2022-08-19T04:11:38;24.20;99.90
7216;DHT22;3649;48.798;9.798;2022-08-19T04:14:11;24.10;99.90
7216;DHT22;3649;48.798;9.798;2022-08-19T04:16:38;24.10;99.90
7216;DHT22;3649;48.798;9.798;2022-08-19T04:19:06;24.10;99.90
7216;DHT22;3649;48.798;9.798;2022-08-19T04:21:33;24.00;99.90
7216;DHT22;3649;48.798;9.798;2022-08-19T04:24:00;24.00;99.90
7216;DHT22;3649;48.798;9.798;2022-08-19T04:26:34;24.00;99.90
7216;DHT22;3649;48.798;9.798;2022-08-19T04:29:05;24.00;99.90
7216;DHT22;3649;48.798;9.798;2022-08-19T04:31:37;24.00;99.90
7216;DHT22;3649;48.798;9.798;2022-08-19T04:34:06;24.10;99.90
7216;DHT22;3649;48.798;9.798;2022-08-19T04:36:36;24.10;99.90
7216;DHT22;3649;48.798;9.798;2022-08-19T04:39:06;24.00;99.90
7216;DHT22;3649;48.798;9.798;2022-08-19T04:41:33;24.00;99.90
7216;DHT22;3649;48.798;9.798;2022-08-19T04:44:19;24.00;99.90
7216;DHT22;3649;48.798;9.798;2022-08-19T04:46:50;23.90;99.90
7216;DHT22;3649;48.798;9.798;2022-08-19T04:49:21;23.90;99.90
7216;DHT22;3649;48.798;9.798;2022-08-19T04:51:51;24.00;99.90
7216;DHT22;3649;48.798;9.798;2022-08-19T04:54:23;24.00;99.90
7216;DHT22;3649;48.798;9.798;2022-08-19T04:57:05;24.00;99.90
7216;DHT22;3649;48.798;9.798;2022-08-19T04:59:34;24.00;99.90
7216;DHT22;3649;48.798;9.798;2022-08-19T05:02:00;24.00;99.90
7216;DHT22;3649;48.798;9.798;2022-08-19T05:04:27;24.00;99.90
7216;DHT22;3649;48.798;9.798;2022-08-19T05:06:59;23.90;99.90
7216;DHT22;3649;48.798;9.798;2022-08-19T05:09:29;24.00;99.90
7216;DHT22;3649;48.798;9.798;2022-08-19T05:12:16;24.00;99.90
7216;DHT22;3649;48.798;9.798;2022-08-19T05:14:44;24.00;99.90
7216;DHT22;3649;48.798;9.798;2022-08-19T05:17:14;24.00;99.90
7216;DHT22;3649;48.798;9.798;2022-08-19T05:20:01;24.00;99.90
7216;DHT22;3649;48.798;9.798;2022-08-19T05:22:47;24.00;99.90
7216;DHT22;3649;48.798;9.798;2022-08-19T05:25:18;24.00;99.90
7216;DHT22;3649;48.798;9.798;2022-08-19T05:27:46;24.10;99.90
7216;DHT22;3649;48.798;9.798;2022-08-19T05:30:13;24.10;99.90
7216;DHT22;3649;48.798;9.798;2022-08-19T05:32:40;24.10;99.90
7216;DHT22;3649;48.798;9.798;2022-08-19T05:35:08;24.10;99.90
7216;DHT22;3649;48.798;9.798;2022-08-19T05:37:36;24.20;99.90
7216;DHT22;3649;48.798;9.798;2022-08-19T05:40:03;24.20;99.90
7216;DHT22;3649;48.798;9.798;2022-08-19T05:42:31;24.20;99.90
7216;DHT22;3649;48.798;9.798;2022-08-19T05:44:58;24.10;99.90
7216;DHT22;3649;48.798;9.798;2022-08-19T05:47:25;24.10;99.90
7216;DHT22;3649;48.798;9.798;2022-08-19T05:49:52;24.00;99.90
7216;DHT22;3649;48.798;9.798;2022-08-19T05:52:19;24.10;99.90
7216;DHT22;3649;48.798;9.798;2022-08-19T05:54:52;24.10;99.90
7216;DHT22;3649;48.798;9.798;2022-08-19T05:57:22;24.10;99.90
7216;DHT22;3649;48.798;9.798;2022-08-19T05:59:49;24.10;99.90
7216;DHT22;3649;48.798;9.798;2022-08-19T06:02:27;24.00;99.90
7216;DHT22;3649;48.798;9.798;2022-08-19T06:04:54;24.10;99.90
7216;DHT22;3649;48.798;9.798;2022-08-19T06:07:21;24.10;99.90
7216;DHT22;3649;48.798;9.798;2022-08-19T06:09:48;24.10;99.90
7216;DHT22;3649;48.798;9.798;2022-08-19T06:12:27;24.10;99.90
7216;DHT22;3649;48.798;9.798;2022-08-19T06:14:55;23.90;99.90
7216;DHT22;3649;48.798;9.798;2022-08-19T06:17:28;24.10;99.90
7216;DHT22;3649;48.798;9.798;2022-08-19T06:19:57;24.10;99.90
7216;DHT22;3649;48.798;9.798;2022-08-19T06:22:25;24.10;99.90
7216;DHT22;3649;48.798;9.798;2022-08-19T06:24:53;23.90;99.90
7216;DHT22;3649;48.798;9.798;2022-08-19T06:27:21;23.90;99.90
7216;DHT22;3649;48.798;9.798;2022-08-19T06:29:48;24.00;99.90
7216;DHT22;3649;48.798;9.798;2022-08-19T06:32:16;24.00;99.90
7216;DHT22;3649;48.798;9.798;2022-08-19T06:34:46;24.00;99.90
7216;DHT22;3649;48.798;9.798;2022-08-19T06:37:15;23.90;99.90
7216;DHT22;3649;48.798;9.798;2022-08-19T06:39:43;23.90;99.90
7216;DHT22;3649;48.798;9.798;2022-08-19T06:42:12;23.90;99.90
7216;DHT22;3649;48.798;9.798;2022-08-19T06:44:42;23.90;99.90
7216;DHT22;3649;48.798;9.798;2022-08-19T06:47:20;23.90;99.90
7216;DHT22;3649;48.798;9.798;2022-08-19T06:49:56;23.90;99.90
7216;DHT22;3649;48.798;9.798;2022-08-19T06:52:33;24.00;99.90
7216;DHT22;3649;48.798;9.798;2022-08-19T06:55:04;24.00;99.90
7216;DHT22;3649;48.798;9.798;2022-08-19T06:57:32;24.10;99.90
7216;DHT22;3649;48.798;9.798;2022-08-19T07:00:02;24.10;99.90
7216;DHT22;3649;48.798;9.798;2022-08-19T07:02:30;24.00;99.90
7216;DHT22;3649;48.798;9.798;2022-08-19T07:04:57;23.90;99.90
7216;DHT22;3649;48.798;9.798;2022-08-19T07:07:25;24.00;99.90
7216;DHT22;3649;48.798;9.798;2022-08-19T07:09:52;24.00;99.90
7216;DHT22;3649;48.798;9.798;2022-08-19T07:12:29;23.90;99.90
7216;DHT22;3649;48.798;9.798;2022-08-19T07:15:04;23.90;99.90
7216;DHT22;3649;48.798;9.798;2022-08-19T07:17:31;23.90;99.90
7216;DHT22;3649;48.798;9.798;2022-08-19T07:20:00;23.90;99.90
7216;DHT22;3649;48.798;9.798;2022-08-19T07:22:34;23.90;99.90
7216;DHT22;3649;48.798;9.798;2022-08-19T07:25:02;23.90;99.90
7216;DHT22;3649;48.798;9.798;2022-08-19T07:27:30;23.90;99.90
7216;DHT22;3649;48.798;9.798;2022-08-19T07:30:03;23.90;99.90
7216;DHT22;3649;48.798;9.798;2022-08-19T07:32:38;23.90;99.90
7216;DHT22;3649;48.798;9.798;2022-08-19T07:35:06;23.80;99.90
7216;DHT22;3649;48.798;9.798;2022-08-19T07:37:33;23.70;99.90
7216;DHT22;3649;48.798;9.798;2022-08-19T07:40:05;23.80;99.90
7216;DHT22;3649;48.798;9.798;2022-08-19T07:42:32;23.80;99.90
7216;DHT22;3649;48.798;9.798;2022-08-19T07:44:59;23.80;99.90
7216;DHT22;3649;48.798;9.798;2022-08-19T07:47:26;23.90;99.90
7216;DHT22;3649;48.798;9.798;2022-08-19T07:50:15;23.90;99.90
7216;DHT22;3649;48.798;9.798;2022-08-19T07:52:42;23.90;99.90
7216;DHT22;3649;48.798;9.798;2022-08-19T07:55:17;23.80;99.90
7216;DHT22;3649;48.798;9.798;2022-08-19T07:58:04;23.80;99.90
7216;DHT22;3649;48.798;9.798;2022-08-19T08:00:32;23.80;99.90
7216;DHT22;3649;48.798;9.798;2022-08-19T08:02:59;23.80;99.90
7216;DHT22;3649;48.798;9.798;2022-08-19T08:05:26;23.80;99.90
7216;DHT22;3649;48.798;9.798;2022-08-19T08:08:11;23.80;99.90
7216;DHT22;3649;48.798;9.798;2022-08-19T08:10:58;23.90;99.90
7216;DHT22;3649;48.798;9.798;2022-08-19T08:13:26;23.90;99.90
7216;DHT22;3649;48.798;9.798;2022-08-19T08:15:54;23.90;99.90
7216;DHT22;3649;48.798;9.798;2022-08-19T08:18:23;23.90;99.90
7216;DHT22;3649;48.798;9.798;2022-08-19T08:20:55;23.90;99.90
7216;DHT22;3649;48.798;9.798;2022-08-19T08:23:22;23.80;99.90
7216;DHT22;3649;48.798;9.798;2022-08-19T08:25:53;23.90;99.90
7216;DHT22;3649;48.798;9.798;2022-08-19T08:28:21;23.80;99.90
7216;DHT22;3649;48.798;9.798;2022-08-19T08:30:48;23.90;99.90
7216;DHT22;3649;48.798;9.798;2022-08-19T08:33:21;23.90;99.90
7216;DHT22;3649;48.798;9.798;2022-08-19T08:36:10;23.80;99.90
7216;DHT22;3649;48.798;9.798;2022-08-19T08:38:38;23.80;99.90
7216;DHT22;3649;48.798;9.798;2022-08-19T08:41:23;23.80;99.90
7216;DHT22;3649;48.798;9.798;2022-08-19T08:43:55;23.80;99.90
7216;DHT22;3649;48.798;9.798;2022-08-19T08:46:41;23.80;99.90
7216;DHT22;3649;48.798;9.798;2022-08-19T08:51:52;23.70;99.90
7216;DHT22;3649;48.798;9.798;2022-08-19T08:54:32;23.70;99.90
7216;DHT22;3649;48.798;9.798;2022-08-19T08:57:04;23.80;99.90
7216;DHT22;3649;48.798;9.798;2022-08-19T08:59:35;23.80;99.90
7216;DHT22;3649;48.798;9.798;2022-08-19T09:02:03;23.80;99.90
7216;DHT22;3649;48.798;9.798;2022-08-19T09:04:31;23.80;99.90
7216;DHT22;3649;48.798;9.798;2022-08-19T09:07:12;23.80;99.90
7216;DHT22;3649;48.798;9.798;2022-08-19T09:10:24;23.90;99.90
7216;DHT22;3649;48.798;9.798;2022-08-19T09:15:40;23.80;99.90
7216;DHT22;3649;48.798;9.798;2022-08-19T09:18:09;23.90;99.90
7216;DHT22;3649;48.798;9.798;2022-08-19T09:20:45;23.80;99.90
7216;DHT22;3649;48.798;9.798;2022-08-19T09:23:14;23.80;99.90
7216;DHT22;3649;48.798;9.798;2022-08-19T09:25:41;23.80;99.90
7216;DHT22;3649;48.798;9.798;2022-08-19T09:28:08;23.80;99.90
7216;DHT22;3649;48.798;9.798;2022-08-19T09:30:48;23.80;99.90
7216;DHT22;3649;48.798;9.798;2022-08-19T09:33:18;23.90;99.90
7216;DHT22;3649;48.798;9.798;2022-08-19T09:35:46;23.90;99.90
7216;DHT22;3649;48.798;9.798;2022-08-19T09:38:19;23.80;99.90
7216;DHT22;3649;48.798;9.798;2022-08-19T09:40:47;23.80;99.90
7216;DHT22;3649;48.798;9.798;2022-08-19T09:43:14;23.80;99.90
7216;DHT22;3649;48.798;9.798;2022-08-19T09:45:59;23.80;99.90
7216;DHT22;3649;48.798;9.798;2022-08-19T09:48:27;23.80;99.90
7216;DHT22;3649;48.798;9.798;2022-08-19T09:50:54;23.80;99.90
7216;DHT22;3649;48.798;9.798;2022-08-19T09:53:21;23.80;99.90
7216;DHT22;3649;48.798;9.798;2022-08-19T09:55:51;23.80;99.90
7216;DHT22;3649;48.798;9.798;2022-08-19T09:58:18;23.90;99.90
7216;DHT22;3649;48.798;9.798;2022-08-19T10:00:51;23.90;99.90
7216;DHT22;3649;48.798;9.798;2022-08-19T10:03:19;23.90;99.90
7216;DHT22;3649;48.798;9.798;2022-08-19T10:05:45;24.00;99.90
7216;DHT22;3649;48.798;9.798;2022-08-19T10:08:28;24.00;99.90
7216;DHT22;3649;48.798;9.798;2022-08-19T10:10:55;24.10;99.90
7216;DHT22;3649;48.798;9.798;2022-08-19T10:13:26;24.00;99.90
7216;DHT22;3649;48.798;9.798;2022-08-19T10:15:55;24.10;99.90
7216;DHT22;3649;48.798;9.798;2022-08-19T10:18:26;24.10;99.90
7216;DHT22;3649;48.798;9.798;2022-08-19T10:21:11;24.10;99.90
7216;DHT22;3649;48.798;9.798;2022-08-19T10:23:42;24.10;99.90
7216;DHT22;3649;48.798;9.798;2022-08-19T10:26:15;24.10;99.90
7216;DHT22;3649;48.798;9.798;2022-08-19T10:28:45;24.10;99.90
7216;DHT22;3649;48.798;9.798;2022-08-19T10:31:19;24.10;99.90
7216;DHT22;3649;48.798;9.798;2022-08-19T10:34:07;24.10;99.90
7216;DHT22;3649;48.798;9.798;2022-08-19T10:36:37;24.10;99.90
7216;DHT22;3649;48.798;9.798;2022-08-19T10:39:21;24.10;99.90
7216;DHT22;3649;48.798;9.798;2022-08-19T10:41:49;24.10;99.90
7216;DHT22;3649;48.798;9.798;2022-08-19T10:44:15;24.10;99.90
7216;DHT22;3649;48.798;9.798;2022-08-19T10:46:44;24.10;99.90
7216;DHT22;3649;48.798;9.798;2022-08-19T10:49:16;24.20;99.90
7216;DHT22;3649;48.798;9.798;2022-08-19T10:51:42;24.10;99.90
7216;DHT22;3649;48.798;9.798;2022-08-19T10:54:28;24.10;99.90
7216;DHT22;3649;48.798;9.798;2022-08-19T10:57:16;24.20;99.90
7216;DHT22;3649;48.798;9.798;2022-08-19T10:59:43;24.10;99.90
7216;DHT22;3649;48.798;9.798;2022-08-19T11:02:11;24.10;99.90
7216;DHT22;3649;48.798;9.798;2022-08-19T11:04:39;24.10;99.90
7216;DHT22;3649;48.798;9.798;2022-08-19T11:07:07;24.00;99.90
7216;DHT22;3649;48.798;9.798;2022-08-19T11:09:39;24.00;99.90
7216;DHT22;3649;48.798;9.798;2022-08-19T11:12:09;24.10;99.90
7216;DHT22;3649;48.798;9.798;2022-08-19T11:14:38;24.10;99.90
7216;DHT22;3649;48.798;9.798;2022-08-19T11:17:05;24.10;99.90
7216;DHT22;3649;48.798;9.798;2022-08-19T11:19:33;24.20;99.90
7216;DHT22;3649;48.798;9.798;2022-08-19T11:22:00;24.10;99.90
7216;DHT22;3649;48.798;9.798;2022-08-19T11:24:31;24.10;99.90
7216;DHT22;3649;48.798;9.798;2022-08-19T11:27:08;24.00;99.90
7216;DHT22;3649;48.798;9.798;2022-08-19T11:29:38;24.00;99.90
7216;DHT22;3649;48.798;9.798;2022-08-19T11:32:07;23.90;99.90
7216;DHT22;3649;48.798;9.798;2022-08-19T11:34:36;23.90;99.90
7216;DHT22;3649;48.798;9.798;2022-08-19T11:37:03;23.90;99.90
7216;DHT22;3649;48.798;9.798;2022-08-19T11:39:32;23.90;99.90
7216;DHT22;3649;48.798;9.798;2022-08-19T11:42:00;23.90;99.90
7216;DHT22;3649;48.798;9.798;2022-08-19T11:44:28;23.80;99.90
7216;DHT22;3649;48.798;9.798;2022-08-19T11:46:56;23.80;99.90
7216;DHT22;3649;48.798;9.798;2022-08-19T11:49:34;23.70;99.90
7216;DHT22;3649;48.798;9.798;2022-08-19T11:52:03;23.60;99.90
7216;DHT22;3649;48.798;9.798;2022-08-19T11:54:29;23.60;99.90
7216;DHT22;3649;48.798;9.798;2022-08-19T11:56:57;23.50;99.90
7216;DHT22;3649;48.798;9.798;2022-08-19T11:59:24;23.40;99.90
7216;DHT22;3649;48.798;9.798;2022-08-19T12:01:53;23.40;99.90
7216;DHT22;3649;48.798;9.798;2022-08-19T12:04:20;23.30;99.90
7216;DHT22;3649;48.798;9.798;2022-08-19T12:06:47;23.30;99.90
7216;DHT22;3649;48.798;9.798;2022-08-19T12:09:14;23.30;99.90
7216;DHT22;3649;48.798;9.798;2022-08-19T12:11:42;23.20;99.90
7216;DHT22;3649;48.798;9.798;2022-08-19T12:14:10;23.10;99.90
7216;DHT22;3649;48.798;9.798;2022-08-19T12:16:40;23.10;99.90
7216;DHT22;3649;48.798;9.798;2022-08-19T12:19:14;23.10;99.90
7216;DHT22;3649;48.798;9.798;2022-08-19T12:21:48;23.10;99.90
7216;DHT22;3649;48.798;9.798;2022-08-19T12:24:15;23.10;99.90
7216;DHT22;3649;48.798;9.798;2022-08-19T12:26:47;22.90;99.90
7216;DHT22;3649;48.798;9.798;2022-08-19T12:29:19;22.90;99.90
7216;DHT22;3649;48.798;9.798;2022-08-19T12:31:50;22.90;99.90
7216;DHT22;3649;48.798;9.798;2022-08-19T12:34:17;22.90;99.90
7216;DHT22;3649;48.798;9.798;2022-08-19T12:36:44;22.90;99.90
7216;DHT22;3649;48.798;9.798;2022-08-19T12:39:10;22.80;99.90
7216;DHT22;3649;48.798;9.798;2022-08-19T12:41:39;22.80;99.90
7216;DHT22;3649;48.798;9.798;2022-08-19T12:44:21;22.70;99.90
7216;DHT22;3649;48.798;9.798;2022-08-19T12:46:58;22.60;99.90
7216;DHT22;3649;48.798;9.798;2022-08-19T12:49:28;22.50;99.90
7216;DHT22;3649;48.798;9.798;2022-08-19T12:52:15;22.40;99.90
7216;DHT22;3649;48.798;9.798;2022-08-19T12:54:50;22.30;99.90
7216;DHT22;3649;48.798;9.798;2022-08-19T12:57:24;22.40;99.90
7216;DHT22;3649;48.798;9.798;2022-08-19T12:59:58;22.40;99.90
7216;DHT22;3649;48.798;9.798;2022-08-19T13:02:26;22.60;99.90
7216;DHT22;3649;48.798;9.798;2022-08-19T13:04:53;22.50;99.90
7216;DHT22;3649;48.798;9.798;2022-08-19T13:07:20;22.50;99.90
7216;DHT22;3649;48.798;9.798;2022-08-19T13:09:51;22.60;99.90
7216;DHT22;3649;48.798;9.798;2022-08-19T13:12:18;22.40;99.90
7216;DHT22;3649;48.798;9.798;2022-08-19T13:14:53;22.40;99.90
7216;DHT22;3649;48.798;9.798;2022-08-19T13:17:21;22.30;99.90
7216;DHT22;3649;48.798;9.798;2022-08-19T13:19:48;22.30;99.90
7216;DHT22;3649;48.798;9.798;2022-08-19T13:22:16;22.20;99.90
7216;DHT22;3649;48.798;9.798;2022-08-19T13:24:43;22.30;99.90
7216;DHT22;3649;48.798;9.798;2022-08-19T13:27:13;22.30;99.90
7216;DHT22;3649;48.798;9.798;2022-08-19T13:29:41;22.30;99.90
7216;DHT22;3649;48.798;9.798;2022-08-19T13:32:29;22.30;99.90
7216;DHT22;3649;48.798;9.798;2022-08-19T13:35:16;22.10;99.90
7216;DHT22;3649;48.798;9.798;2022-08-19T13:37:43;22.00;99.90
7216;DHT22;3649;48.798;9.798;2022-08-19T13:40:23;22.10;99.90
7216;DHT22;3649;48.798;9.798;2022-08-19T13:42:52;22.10;99.90
7216;DHT22;3649;48.798;9.798;2022-08-19T13:45:22;22.10;99.90
7216;DHT22;3649;48.798;9.798;2022-08-19T13:47:52;22.10;99.90
7216;DHT22;3649;48.798;9.798;2022-08-19T13:50:28;22.10;99.90
7216;DHT22;3649;48.798;9.798;2022-08-19T13:52:55;22.20;99.90
7216;DHT22;3649;48.798;9.798;2022-08-19T13:55:23;22.20;99.90
7216;DHT22;3649;48.798;9.798;2022-08-19T13:57:52;22.20;99.90
7216;DHT22;3649;48.798;9.798;2022-08-19T14:00:22;22.30;99.90
7216;DHT22;3649;48.798;9.798;2022-08-19T14:02:54;22.20;99.90
7216;DHT22;3649;48.798;9.798;2022-08-19T14:05:23;22.20;99.90
7216;DHT22;3649;48.798;9.798;2022-08-19T14:07:50;22.30;99.90
7216;DHT22;3649;48.798;9.798;2022-08-19T14:10:17;22.30;99.90
7216;DHT22;3649;48.798;9.798;2022-08-19T14:12:45;22.30;99.90
7216;DHT22;3649;48.798;9.798;2022-08-19T14:15:13;22.30;99.90
7216;DHT22;3649;48.798;9.798;2022-08-19T14:17:43;22.30;99.90
7216;DHT22;3649;48.798;9.798;2022-08-19T14:20:11;22.40;99.90
7216;DHT22;3649;48.798;9.798;2022-08-19T14:22:45;22.40;99.90
7216;DHT22;3649;48.798;9.798;2022-08-19T14:25:15;22.50;99.90
7216;DHT22;3649;48.798;9.798;2022-08-19T14:27:43;22.60;99.90
7216;DHT22;3649;48.798;9.798;2022-08-19T14:30:13;22.60;99.90
7216;DHT22;3649;48.798;9.798;2022-08-19T14:32:40;22.70;99.90
7216;DHT22;3649;48.798;9.798;2022-08-19T14:35:10;22.70;99.90
7216;DHT22;3649;48.798;9.798;2022-08-19T14:37:39;22.70;99.90
7216;DHT22;3649;48.798;9.798;2022-08-19T14:40:13;22.70;99.90
7216;DHT22;3649;48.798;9.798;2022-08-19T14:42:41;22.80;99.90
7216;DHT22;3649;48.798;9.798;2022-08-19T14:45:10;22.80;99.90
7216;DHT22;3649;48.798;9.798;2022-08-19T14:47:37;22.80;99.90
7216;DHT22;3649;48.798;9.798;2022-08-19T14:50:10;22.90;99.90
7216;DHT22;3649;48.798;9.798;2022-08-19T14:52:48;22.90;99.90
7216;DHT22;3649;48.798;9.798;2022-08-19T14:55:16;22.90;99.90
7216;DHT22;3649;48.798;9.798;2022-08-19T14:57:44;23.00;99.90
7216;DHT22;3649;48.798;9.798;2022-08-19T15:00:11;23.00;99.90
7216;DHT22;3649;48.798;9.798;2022-08-19T15:02:42;23.00;99.90
7216;DHT22;3649;48.798;9.798;2022-08-19T15:05:11;23.00;99.90
7216;DHT22;3649;48.798;9.798;2022-08-19T15:07:39;23.00;99.90
7216;DHT22;3649;48.798;9.798;2022-08-19T15:10:08;23.00;99.90
7216;DHT22;3649;48.798;9.798;2022-08-19T15:12:37;23.00;99.90
7216;DHT22;3649;48.798;9.798;2022-08-19T15:15:09;23.00;99.90
7216;DHT22;3649;48.798;9.798;2022-08-19T15:17:40;23.10;99.90
7216;DHT22;3649;48.798;9.798;2022-08-19T15:20:15;23.10;99.90
7216;DHT22;3649;48.798;9.798;2022-08-19T15:22:42;23.10;99.90
7216;DHT22;3649;48.798;9.798;2022-08-19T15:25:11;23.10;99.90
7216;DHT22;3649;48.798;9.798;2022-08-19T15:27:40;23.10;99.90
7216;DHT22;3649;48.798;9.798;2022-08-19T15:30:10;23.10;99.90
7216;DHT22;3649;48.798;9.798;2022-08-19T15:32:38;23.20;99.90
7216;DHT22;3649;48.798;9.798;2022-08-19T15:35:06;23.20;99.90
7216;DHT22;3649;48.798;9.798;2022-08-19T15:37:33;23.20;99.90
7216;DHT22;3649;48.798;9.798;2022-08-19T15:40:04;23.30;99.90
7216;DHT22;3649;48.798;9.798;2022-08-19T15:42:35;23.30;99.90
7216;DHT22;3649;48.798;9.798;2022-08-19T15:45:07;23.20;99.90
7216;DHT22;3649;48.798;9.798;2022-08-19T15:47:36;23.20;99.90
7216;DHT22;3649;48.798;9.798;2022-08-19T15:50:08;23.20;99.90
7216;DHT22;3649;48.798;9.798;2022-08-19T15:52:47;23.30;99.90
7216;DHT22;3649;48.798;9.798;2022-08-19T15:55:17;23.30;99.90
7216;DHT22;3649;48.798;9.798;2022-08-19T15:58:06;23.30;99.90
7216;DHT22;3649;48.798;9.798;2022-08-19T16:01:05;23.30;99.90
7216;DHT22;3649;48.798;9.798;2022-08-19T16:03:54;23.30;99.90
7216;DHT22;3649;48.798;9.798;2022-08-19T16:06:45;23.40;99.90
7216;DHT22;3649;48.798;9.798;2022-08-19T16:09:13;23.40;99.90
7216;DHT22;3649;48.798;9.798;2022-08-19T16:11:41;23.50;99.90
7216;DHT22;3649;48.798;9.798;2022-08-19T16:14:13;23.40;99.90
7216;DHT22;3649;48.798;9.798;2022-08-19T16:16:41;23.30;99.90
7216;DHT22;3649;48.798;9.798;2022-08-19T16:19:08;23.30;99.90
7216;DHT22;3649;48.798;9.798;2022-08-19T16:21:38;23.20;99.90
7216;DHT22;3649;48.798;9.798;2022-08-19T16:24:10;23.20;99.90
7216;DHT22;3649;48.798;9.798;2022-08-19T16:26:40;23.20;99.90
7216;DHT22;3649;48.798;9.798;2022-08-19T16:29:08;23.10;99.90
7216;DHT22;3649;48.798;9.798;2022-08-19T16:31:40;23.20;99.90
7216;DHT22;3649;48.798;9.798;2022-08-19T16:34:07;23.10;99.90
7216;DHT22;3649;48.798;9.798;2022-08-19T16:36:35;23.20;99.90